Terminal Aerodrome Forecast
Issued by NWS

Home | Current Version | Previous Version | Text Only | Print | Product List | Glossary On
Versions: 1 2 3 4 5 6 7 8 9 10 11 12 13 14 15 16
533
FTUS42 TJSJ 230536
TAFJBQ
TAF
TJBQ 230536Z 2306/2406 00000KT P6SM FEW025
     FM231330 08012KT P6SM FEW030
     FM231630 09014G22KT P6SM VCTS SCT025CB BKN060
     FM232300 11008KT P6SM FEW025 SCT070
      AMD NOT SKED TIL 231100=

USA.gov is the U.S. government's official web portal to all federal, state and local government web resources and services.